Current Conditions
Scattered
Clouds



Pressure
1012.92 (mb) - 29.91 (inHG)
Visibility

6.2 (miles) - 10.0 (km)
Temperature
20  °C
Temperature
10  °C
Dewpoint
53  %
 Humidity
Wind Speed
12  mph
10  kts
19  km/h
5.4  m/s
Wind Direction
N
45°
E
90°
135°
S
180°
225°
W
270°
315°
 200°

South South
West
Airport Data
EGYM
RAF Marham
Metar :EGYM 221050Z AUTO 20010KT 9999 SCT039/// 20/10 Q1013
Sun 22nd May 11:50 am
Raw Metar Info
Raw METAR is the most common format in the world for the transmission of observational weather data. It is highly standardized through the International Civil Aviation Organization (ICAO), which allows it to be understood throughout most of the world.
API Info
Data Provided by
https://www.checkwx.com/weather/EGYM

Aviation Weather providing METAR, TAF, AIRMET, SIGMET and OUTLOOK Weather Reports
© Info
CSS/SVG/PHP scripts were developed by weather34 for use in the weather34 template © 2015-2022

Guide Info provided by Metar-Wikipedia